createdAt,value
2019-04-22T00:00:40.734Z,59.90
2019-04-22T00:01:43.508Z,60.13
2019-04-22T00:02:52.600Z,60.16
2019-04-22T00:04:00.502Z,60.00
2019-04-22T00:05:07.291Z,60.26
2019-04-22T00:06:22.517Z,60.38
2019-04-22T00:07:34.236Z,60.75
2019-04-22T00:08:36.210Z,60.30
2019-04-22T00:09:41.816Z,59.98
2019-04-22T00:10:52.675Z,60.17
2019-04-22T00:11:49.399Z,60.09
2019-04-22T00:12:57.406Z,59.98
2019-04-22T00:13:58.154Z,60.50
2019-04-22T00:14:55.505Z,60.34
2019-04-22T00:15:59.270Z,61.04
2019-04-22T00:17:16.658Z,60.66
2019-04-22T00:18:13.424Z,60.43
2019-04-22T00:20:22.692Z,61.05
2019-04-22T00:21:25.739Z,60.64
2019-04-22T00:22:30.208Z,61.38
2019-04-22T00:23:36.945Z,61.32
2019-04-22T00:24:36.642Z,61.40
2019-04-22T00:25:42.105Z,61.34
2019-04-22T00:26:51.313Z,61.48
2019-04-22T00:28:59.291Z,61.53
2019-04-22T00:31:06.708Z,61.58
2019-04-22T00:32:05.659Z,61.79
2019-04-22T00:33:11.676Z,61.88
2019-04-22T00:34:14.394Z,61.67
2019-04-22T00:35:18.248Z,62.23
2019-04-22T00:36:23.752Z,62.27
2019-04-22T00:37:28.806Z,61.54
2019-04-22T00:39:55.100Z,61.78
2019-04-22T00:40:39.745Z,61.79
2019-04-22T00:41:48.755Z,61.90
2019-04-22T00:42:53.053Z,61.62
2019-04-22T00:43:56.775Z,61.82
2019-04-22T00:45:00.802Z,61.47
2019-04-22T00:46:02.925Z,61.57
2019-04-22T00:47:07.267Z,61.34
2019-04-22T00:48:16.435Z,61.46
2019-04-22T00:49:59.831Z,61.25
2019-04-22T00:51:29.049Z,61.24
2019-04-22T00:52:28.124Z,61.74
2019-04-22T00:53:36.026Z,61.40
2019-04-22T00:54:42.208Z,61.62
2019-04-22T00:55:40.402Z,61.81
2019-04-22T00:56:42.208Z,61.70
2019-04-22T00:57:52.024Z,61.58
2019-04-22T00:58:54.745Z,61.48
2019-04-22T00:59:58.232Z,61.63
2019-04-22T01:01:03.366Z,61.62
2019-04-22T01:02:06.798Z,62.28
2019-04-22T01:03:19.699Z,62.51
2019-04-22T01:04:23.124Z,62.65
2019-04-22T01:05:21.353Z,62.92
2019-04-22T01:07:27.118Z,63.65
2019-04-22T01:08:43.193Z,63.93
2019-04-22T01:09:41.852Z,64.53
2019-04-22T01:11:44.999Z,64.91
2019-04-22T01:12:50.002Z,65.35
2019-04-22T01:13:55.675Z,65.54
2019-04-22T01:15:01.107Z,66.30
2019-04-22T01:16:09.464Z,66.54
2019-04-22T01:17:06.396Z,66.85
2019-04-22T01:18:13.173Z,66.95
2019-04-22T01:19:17.711Z,66.97
2019-04-22T01:20:37.830Z,66.91
2019-04-22T01:21:28.917Z,67.03
2019-04-22T01:22:38.376Z,67.09
2019-04-22T01:23:27.818Z,67.17
2019-04-22T01:24:37.104Z,67.28
2019-04-22T01:25:39.228Z,67.21
2019-04-22T01:26:36.287Z,67.26
2019-04-22T01:27:41.829Z,67.31
2019-04-22T01:28:42.269Z,67.55
2019-04-22T01:29:46.735Z,67.66
2019-04-22T01:30:46.904Z,67.76
2019-04-22T01:31:43.843Z,67.86
2019-04-22T01:32:49.332Z,68.08
2019-04-22T01:34:08.179Z,68.05
2019-04-22T01:35:08.458Z,68.23
2019-04-22T01:36:13.694Z,68.40
2019-04-22T01:37:20.275Z,68.16
2019-04-22T01:38:23.354Z,68.29
2019-04-22T01:39:40.362Z,68.40
2019-04-22T01:40:45.490Z,68.50
2019-04-22T01:42:16.868Z,68.63
2019-04-22T01:42:56.020Z,68.72
2019-04-22T01:44:03.278Z,68.93
2019-04-22T01:45:03.346Z,69.05
2019-04-22T01:46:03.006Z,69.14
2019-04-22T01:47:06.608Z,69.14
2019-04-22T01:48:10.475Z,69.26
2019-04-22T01:49:18.922Z,69.23
2019-04-22T01:50:24.045Z,69.26
2019-04-22T01:51:35.457Z,69.32
2019-04-22T01:52:23.736Z,69.38
2019-04-22T01:53:33.727Z,69.42
2019-04-22T01:54:45.493Z,69.41
2019-04-22T01:55:39.873Z,69.43
2019-04-22T01:56:51.350Z,69.49
2019-04-22T01:57:47.512Z,69.56
2019-04-22T01:58:48.243Z,69.56
2019-04-22T01:59:45.825Z,69.62
2019-04-22T02:01:00.234Z,69.65
2019-04-22T02:02:07.781Z,69.68
2019-04-22T02:03:14.110Z,69.75
2019-04-22T02:04:24.048Z,69.73
2019-04-22T02:05:17.702Z,69.78
2019-04-22T02:06:27.690Z,69.89
2019-04-22T02:07:23.550Z,69.86
2019-04-22T02:08:37.940Z,69.86
2019-04-22T02:09:53.425Z,69.93
2019-04-22T02:10:39.153Z,69.98
2019-04-22T02:11:45.503Z,69.93
2019-04-22T02:12:46.996Z,69.78
2019-04-22T02:13:52.346Z,69.44
2019-04-22T02:14:50.366Z,69.58
2019-04-22T02:15:58.777Z,69.60
2019-04-22T02:18:18.339Z,69.71
2019-04-22T02:19:20.719Z,69.65
2019-04-22T02:20:16.887Z,69.68
2019-04-22T02:21:20.441Z,69.64
2019-04-22T02:22:42.838Z,69.70
2019-04-22T02:24:41.203Z,69.67
2019-04-22T02:25:42.789Z,69.68
2019-04-22T02:26:40.179Z,69.84
2019-04-22T02:27:46.105Z,69.95
2019-04-22T02:28:47.981Z,70.03
2019-04-22T02:29:51.976Z,70.03
2019-04-22T02:31:22.977Z,70.08
2019-04-22T02:32:24.764Z,70.08
2019-04-22T02:33:40.929Z,70.17
2019-04-22T02:34:37.471Z,70.25
2019-04-22T02:35:36.580Z,70.29
2019-04-22T02:37:35.950Z,70.31
2019-04-22T02:39:34.485Z,70.35
2019-04-22T02:40:56.239Z,70.29
2019-04-22T02:41:41.553Z,70.31
2019-04-22T02:42:58.105Z,70.33
2019-04-22T02:44:04.074Z,70.27
2019-04-22T02:44:53.612Z,70.40
2019-04-22T02:47:15.566Z,70.38
2019-04-22T02:48:26.065Z,70.24
2019-04-22T02:49:22.659Z,70.21
2019-04-22T02:51:26.171Z,69.98
2019-04-22T02:52:31.014Z,69.87
2019-04-22T02:54:11.636Z,69.56
2019-04-22T02:55:44.269Z,69.03
2019-04-22T02:59:03.545Z,68.34
2019-04-22T03:01:05.423Z,67.89
2019-04-22T03:02:07.709Z,67.89
2019-04-22T03:04:20.635Z,67.56
2019-04-22T03:05:27.901Z,67.36
2019-04-22T03:06:32.830Z,67.07
2019-04-22T03:07:25.880Z,67.32
2019-04-22T03:09:40.383Z,67.01
2019-04-22T03:10:49.363Z,67.05
2019-04-22T03:12:49.008Z,66.58
2019-04-22T03:14:01.281Z,66.68
2019-04-22T03:15:07.378Z,66.43
2019-04-22T03:16:08.344Z,66.42
2019-04-22T03:17:11.333Z,66.28
2019-04-22T03:18:09.747Z,66.39
2019-04-22T03:20:14.226Z,66.40
2019-04-22T03:21:29.236Z,66.30
2019-04-22T03:22:21.045Z,66.64
2019-04-22T03:27:40.141Z,67.78
2019-04-22T03:29:13.337Z,67.75
2019-04-22T03:30:16.342Z,67.87
2019-04-22T03:32:33.494Z,68.67
2019-04-22T03:36:58.139Z,70.17
2019-04-22T03:37:34.022Z,70.41
2019-04-22T03:38:45.672Z,70.41
2019-04-22T03:39:45.444Z,70.45
2019-04-22T03:42:05.245Z,70.33
2019-04-22T03:44:15.088Z,70.25
2019-04-22T03:45:04.292Z,70.04
2019-04-22T03:45:51.289Z,69.88
2019-04-22T03:50:22.054Z,69.97
2019-04-22T03:52:24.958Z,70.01
2019-04-22T03:54:39.172Z,70.35
2019-04-22T03:55:41.332Z,70.33
2019-04-22T03:57:18.344Z,70.49
2019-04-22T03:57:49.786Z,70.41
2019-04-22T03:58:57.000Z,70.52
2019-04-22T03:59:59.357Z,70.51
2019-04-22T04:01:06.808Z,70.45
2019-04-22T04:04:19.155Z,70.32
2019-04-22T04:08:55.470Z,69.69
2019-04-22T04:09:49.323Z,69.60
2019-04-22T04:11:53.956Z,69.07
2019-04-22T04:13:52.179Z,68.54
2019-04-22T04:15:55.755Z,68.12
2019-04-22T04:18:01.318Z,68.11
2019-04-22T04:19:13.846Z,67.95
2019-04-22T04:20:21.394Z,67.97
2019-04-22T04:22:54.077Z,68.13
2019-04-22T04:23:37.815Z,68.17
2019-04-22T04:24:46.298Z,68.22
2019-04-22T04:25:42.214Z,68.17
2019-04-22T04:27:04.111Z,67.97
2019-04-22T04:29:05.449Z,67.78
2019-04-22T04:31:02.652Z,67.96
2019-04-22T04:32:25.138Z,67.84
2019-04-22T04:33:05.078Z,67.92
2019-04-22T04:34:15.169Z,67.75
2019-04-22T04:35:23.500Z,67.90
2019-04-22T04:36:28.326Z,67.72
2019-04-22T04:37:40.677Z,67.72
2019-04-22T04:38:32.158Z,67.53
2019-04-22T04:39:40.537Z,67.48
2019-04-22T04:40:37.708Z,67.68
2019-04-22T04:42:46.217Z,67.36
2019-04-22T04:43:59.665Z,67.42
2019-04-22T04:45:11.034Z,67.33
2019-04-22T04:46:06.887Z,67.34
2019-04-22T04:47:17.668Z,67.37
2019-04-22T04:48:02.416Z,67.58
2019-04-22T04:49:19.197Z,67.73
2019-04-22T04:50:22.607Z,67.65
2019-04-22T04:52:39.819Z,67.83
2019-04-22T04:53:53.139Z,67.92
2019-04-22T04:54:35.960Z,67.88
2019-04-22T04:56:40.336Z,67.88
2019-04-22T04:57:56.926Z,67.80
2019-04-22T04:59:11.955Z,67.83
2019-04-22T05:00:22.061Z,67.93
2019-04-22T05:02:06.684Z,67.73
2019-04-22T05:05:20.305Z,67.75
2019-04-22T05:06:21.448Z,67.70
2019-04-22T05:07:36.185Z,67.72
2019-04-22T05:08:54.379Z,67.78
2019-04-22T05:09:26.317Z,67.66
2019-04-22T05:12:03.554Z,67.67
2019-04-22T05:14:55.118Z,67.81
2019-04-22T05:16:11.193Z,67.72
2019-04-22T05:17:18.342Z,67.88
2019-04-22T05:18:06.095Z,67.95
2019-04-22T05:21:16.324Z,67.45
2019-04-22T05:22:20.771Z,67.39
2019-04-22T05:23:33.340Z,67.17
2019-04-22T05:25:28.563Z,67.08
2019-04-22T05:26:46.628Z,67.16
2019-04-22T05:27:40.034Z,67.25
2019-04-22T05:28:43.345Z,67.38
2019-04-22T05:30:57.199Z,67.38
2019-04-22T05:30:58.959Z,67.16
2019-04-22T05:32:04.565Z,67.53
2019-04-22T05:33:01.586Z,67.13
2019-04-22T05:34:08.127Z,67.24
2019-04-22T05:36:18.622Z,66.79
2019-04-22T05:37:22.796Z,66.52
2019-04-22T05:38:27.976Z,66.14
2019-04-22T05:39:22.607Z,65.88
2019-04-22T05:40:41.128Z,65.18
2019-04-22T05:41:35.316Z,63.80
2019-04-22T05:42:34.507Z,62.55
2019-04-22T05:43:42.604Z,61.24
2019-04-22T05:44:50.015Z,60.72
2019-04-22T05:45:54.233Z,59.98
2019-04-22T05:46:58.887Z,59.19
2019-04-22T05:49:08.211Z,58.05
2019-04-22T05:50:08.192Z,57.27
2019-04-22T05:51:21.832Z,56.85
2019-04-22T05:52:14.818Z,56.99
2019-04-22T05:53:21.235Z,56.54
2019-04-22T05:54:27.782Z,56.18
2019-04-22T05:55:36.283Z,56.09
2019-04-22T05:56:37.143Z,55.84
2019-04-22T05:57:38.857Z,55.70
2019-04-22T05:58:53.313Z,55.57
2019-04-22T05:59:52.215Z,55.69
2019-04-22T06:01:23.635Z,56.10
2019-04-22T06:03:15.346Z,55.46
2019-04-22T06:05:13.902Z,55.23
2019-04-22T06:07:25.302Z,54.48
2019-04-22T06:08:25.648Z,54.40
2019-04-22T06:09:30.204Z,54.35
2019-04-22T06:10:39.455Z,54.21
2019-04-22T06:11:44.784Z,54.04
2019-04-22T06:12:32.672Z,53.56
2019-04-22T06:13:38.896Z,54.06
2019-04-22T06:14:54.255Z,52.37
2019-04-22T06:15:54.372Z,53.49
2019-04-22T06:17:10.799Z,54.17
2019-04-22T06:18:09.586Z,53.39
2019-04-22T06:20:10.484Z,53.08
2019-04-22T06:21:22.562Z,53.34
2019-04-22T06:22:34.316Z,53.72
2019-04-22T06:24:27.530Z,53.74
2019-04-22T06:25:55.018Z,54.18
2019-04-22T06:26:55.934Z,54.35
2019-04-22T06:27:42.841Z,54.70
2019-04-22T06:28:48.437Z,51.74
2019-04-22T06:29:46.339Z,51.91
2019-04-22T06:33:02.767Z,52.93
2019-04-22T06:34:17.650Z,54.35
2019-04-22T06:35:23.293Z,52.47
2019-04-22T06:36:24.519Z,53.56
2019-04-22T06:37:32.242Z,51.59
2019-04-22T06:38:37.634Z,51.84
2019-04-22T06:39:38.258Z,51.41
2019-04-22T06:40:42.287Z,50.69
2019-04-22T06:41:51.651Z,51.65
2019-04-22T06:42:52.392Z,51.76
2019-04-22T06:43:56.200Z,51.50
2019-04-22T06:45:02.733Z,51.96
2019-04-22T06:46:04.221Z,51.94
2019-04-22T06:47:05.265Z,51.04
2019-04-22T06:48:15.341Z,51.49
2019-04-22T06:49:20.734Z,51.02
2019-04-22T06:50:16.608Z,51.38
2019-04-22T06:51:20.080Z,51.64
2019-04-22T06:52:22.073Z,51.54
2019-04-22T06:53:29.685Z,52.12
2019-04-22T06:54:32.915Z,51.71
2019-04-22T06:55:41.294Z,51.05
2019-04-22T06:56:43.126Z,51.61
2019-04-22T06:57:46.087Z,51.19
2019-04-22T06:58:55.233Z,51.08
2019-04-22T06:59:59.040Z,52.03
2019-04-22T07:01:06.151Z,52.00
2019-04-22T07:03:33.305Z,51.09
2019-04-22T07:04:14.467Z,50.46
2019-04-22T07:05:19.739Z,50.79
2019-04-22T07:06:33.433Z,51.76
2019-04-22T07:07:29.717Z,51.48
2019-04-22T07:09:02.441Z,50.82
2019-04-22T07:10:44.854Z,50.98
2019-04-22T07:11:47.519Z,51.49
2019-04-22T07:12:49.279Z,51.90
2019-04-22T07:14:00.040Z,52.33
2019-04-22T07:14:53.485Z,52.40
2019-04-22T07:15:57.468Z,51.66
2019-04-22T07:17:01.867Z,51.92
2019-04-22T07:18:11.209Z,52.23
2019-04-22T07:19:18.425Z,53.07
2019-04-22T07:20:17.299Z,52.07
2019-04-22T07:21:23.680Z,52.54
2019-04-22T07:22:29.298Z,51.57
2019-04-22T07:23:35.677Z,51.68
2019-04-22T07:25:41.332Z,51.62
2019-04-22T07:26:46.945Z,51.84
2019-04-22T07:27:46.077Z,51.22
2019-04-22T07:28:50.457Z,48.92
2019-04-22T07:30:02.028Z,49.31
2019-04-22T07:31:05.045Z,48.92
2019-04-22T07:32:06.829Z,48.44
2019-04-22T07:34:24.062Z,48.53
2019-04-22T07:35:22.834Z,48.42
2019-04-22T07:37:39.104Z,47.88
2019-04-22T07:39:35.615Z,47.42
2019-04-22T07:40:43.879Z,48.52
2019-04-22T07:41:47.584Z,45.97
2019-04-22T07:42:49.093Z,46.96
2019-04-22T07:44:10.281Z,46.63
2019-04-22T07:44:59.344Z,47.20
2019-04-22T07:46:00.348Z,47.60
2019-04-22T07:47:18.461Z,46.89
2019-04-22T07:48:24.077Z,47.80
2019-04-22T07:49:18.825Z,47.30
2019-04-22T07:51:37.495Z,47.47
2019-04-22T07:52:27.775Z,46.33
2019-04-22T07:53:28.986Z,47.17
2019-04-22T07:54:43.146Z,46.72
2019-04-22T07:55:40.441Z,46.75
2019-04-22T07:56:43.892Z,47.14
2019-04-22T07:57:52.345Z,47.20
2019-04-22T07:58:56.874Z,47.12
2019-04-22T08:00:02.979Z,46.27
2019-04-22T08:01:08.803Z,46.51
2019-04-22T08:02:12.808Z,46.44
2019-04-22T08:04:30.287Z,46.54
2019-04-22T08:05:24.704Z,46.67
2019-04-22T08:06:26.208Z,46.50
2019-04-22T08:07:30.357Z,46.70
2019-04-22T08:08:35.616Z,46.46
2019-04-22T08:09:44.560Z,46.25
2019-04-22T08:10:48.621Z,47.38
2019-04-22T08:11:51.220Z,47.20
2019-04-22T08:12:55.016Z,46.73
2019-04-22T08:13:54.619Z,46.12
2019-04-22T08:15:00.344Z,46.12
2019-04-22T08:16:04.513Z,46.20
2019-04-22T08:17:36.268Z,47.05
2019-04-22T08:18:22.065Z,48.30
2019-04-22T08:19:23.569Z,48.61
2019-04-22T08:20:23.742Z,49.01
2019-04-22T08:21:22.340Z,49.73
2019-04-22T08:22:27.317Z,49.47
2019-04-22T08:23:37.433Z,49.26
2019-04-22T08:24:45.404Z,49.64
2019-04-22T08:25:43.135Z,47.70
2019-04-22T08:26:51.335Z,47.58
2019-04-22T08:27:51.901Z,46.79
2019-04-22T08:28:57.921Z,45.85
2019-04-22T08:30:06.482Z,45.63
2019-04-22T08:31:07.622Z,45.75
2019-04-22T08:32:28.614Z,45.92
2019-04-22T08:33:15.962Z,47.16
2019-04-22T08:34:20.944Z,46.25
2019-04-22T08:35:29.243Z,46.19
2019-04-22T08:36:54.056Z,46.31
2019-04-22T08:38:43.651Z,44.50
2019-04-22T08:39:54.619Z,44.21
2019-04-22T08:40:47.261Z,43.69
2019-04-22T08:42:05.429Z,44.20
2019-04-22T08:43:09.062Z,44.66
2019-04-22T08:44:10.561Z,44.97
2019-04-22T08:45:18.250Z,44.91
2019-04-22T08:46:13.473Z,43.94
2019-04-22T08:47:21.827Z,44.71
2019-04-22T08:48:18.627Z,45.52
2019-04-22T08:49:16.489Z,45.50
2019-04-22T08:50:38.848Z,44.13
2019-04-22T08:52:34.695Z,43.91
2019-04-22T08:53:40.347Z,44.03
2019-04-22T08:54:44.315Z,44.94
2019-04-22T08:56:58.186Z,43.04
2019-04-22T08:59:07.008Z,44.75
2019-04-22T09:00:02.927Z,45.57
2019-04-22T09:01:14.670Z,45.57
2019-04-22T09:02:19.940Z,45.48
2019-04-22T09:03:15.968Z,44.98
2019-04-22T09:04:16.211Z,43.93
2019-04-22T09:05:42.057Z,43.90
2019-04-22T09:06:47.856Z,45.37
2019-04-22T09:07:36.789Z,44.19
2019-04-22T09:08:40.655Z,42.41
2019-04-22T09:09:48.952Z,42.74
2019-04-22T09:10:51.897Z,42.04
2019-04-22T09:11:54.763Z,42.10
2019-04-22T09:14:06.195Z,42.21
2019-04-22T09:15:02.446Z,42.46
2019-04-22T09:16:10.640Z,42.17
2019-04-22T09:17:14.781Z,42.86
2019-04-22T09:18:23.225Z,43.74
2019-04-22T09:19:23.837Z,43.80
2019-04-22T09:20:26.801Z,43.71
2019-04-22T09:21:32.615Z,43.52
2019-04-22T09:22:38.669Z,43.37
2019-04-22T09:23:50.588Z,43.97
2019-04-22T09:25:51.147Z,45.85
2019-04-22T09:26:54.449Z,44.36
2019-04-22T09:27:57.184Z,44.38
2019-04-22T09:29:05.036Z,45.66
2019-04-22T09:30:06.151Z,45.85
2019-04-22T09:31:11.735Z,46.02
2019-04-22T09:32:34.769Z,45.09
2019-04-22T09:33:20.627Z,45.19
2019-04-22T09:34:30.395Z,45.07
2019-04-22T09:35:39.198Z,45.69
2019-04-22T09:36:34.202Z,44.78
2019-04-22T09:37:55.979Z,44.53
2019-04-22T09:38:41.184Z,44.19
2019-04-22T09:39:54.746Z,46.04
2019-04-22T09:40:52.638Z,46.05
2019-04-22T09:41:57.237Z,46.22
2019-04-22T09:43:08.452Z,46.91
2019-04-22T09:44:02.369Z,45.22
2019-04-22T09:45:11.250Z,45.79
2019-04-22T09:46:15.126Z,46.44
2019-04-22T09:47:19.249Z,46.96
2019-04-22T09:48:33.543Z,46.65
2019-04-22T09:50:40.449Z,46.91
2019-04-22T09:51:38.919Z,46.69
2019-04-22T09:52:45.654Z,46.63
2019-04-22T09:53:57.872Z,46.75
2019-04-22T09:54:59.863Z,46.85
2019-04-22T09:55:56.859Z,47.49
2019-04-22T09:56:56.506Z,47.82
2019-04-22T09:58:05.428Z,47.19
2019-04-22T09:59:07.497Z,44.87
2019-04-22T10:02:31.799Z,44.33
2019-04-22T10:03:29.661Z,42.88
2019-04-22T10:04:33.051Z,43.34
2019-04-22T10:05:32.797Z,43.21
2019-04-22T10:06:53.117Z,43.64
2019-04-22T10:07:43.249Z,43.25
2019-04-22T10:09:02.104Z,42.96
2019-04-22T10:09:59.696Z,43.54
2019-04-22T10:11:00.723Z,43.36
2019-04-22T10:11:58.680Z,43.95
2019-04-22T10:13:06.378Z,44.17
2019-04-22T10:14:29.049Z,45.20
2019-04-22T10:15:13.516Z,45.15
2019-04-22T10:16:27.480Z,45.68
2019-04-22T10:17:17.517Z,46.60
2019-04-22T10:18:28.907Z,45.32
2019-04-22T10:19:34.982Z,45.49
2019-04-22T10:20:38.258Z,45.25
2019-04-22T10:21:44.789Z,45.58
2019-04-22T10:22:46.018Z,46.03
2019-04-22T10:23:53.369Z,46.51
2019-04-22T10:24:55.290Z,46.95
2019-04-22T10:26:02.547Z,48.14
2019-04-22T10:27:02.771Z,44.73
2019-04-22T10:28:08.977Z,43.62
2019-04-22T10:29:14.097Z,43.29
2019-04-22T10:30:39.142Z,44.58
2019-04-22T10:31:28.088Z,44.86
2019-04-22T10:32:27.839Z,45.28
2019-04-22T10:33:21.945Z,45.53
2019-04-22T10:34:16.864Z,45.13
2019-04-22T10:35:17.148Z,45.40
2019-04-22T10:36:17.178Z,44.97
2019-04-22T10:37:23.400Z,43.99
2019-04-22T10:38:24.637Z,44.70
2019-04-22T10:39:41.189Z,43.91
2019-04-22T10:40:34.574Z,42.79
2019-04-22T10:41:38.956Z,44.23
2019-04-22T10:42:43.409Z,43.84
2019-04-22T10:43:47.604Z,43.58
2019-04-22T10:44:51.894Z,42.81
2019-04-22T10:45:55.525Z,42.61
2019-04-22T10:47:00.094Z,42.70
2019-04-22T10:48:04.181Z,42.61
2019-04-22T10:49:08.636Z,42.73
2019-04-22T10:50:14.270Z,42.54
2019-04-22T10:51:18.903Z,42.18
2019-04-22T10:52:21.699Z,43.26
2019-04-22T10:53:26.153Z,42.66
2019-04-22T10:54:31.477Z,41.74
2019-04-22T10:55:35.183Z,41.87
2019-04-22T10:56:39.278Z,42.02
2019-04-22T10:57:44.431Z,42.59
2019-04-22T10:58:48.924Z,40.90
2019-04-22T10:59:52.458Z,41.61
2019-04-22T11:00:58.165Z,41.87
2019-04-22T11:02:01.459Z,42.64
2019-04-22T11:03:06.497Z,41.96
2019-04-22T11:04:11.199Z,42.01
2019-04-22T11:05:14.574Z,41.73
2019-04-22T11:06:19.240Z,42.30
2019-04-22T11:07:31.081Z,41.68
2019-04-22T11:08:35.010Z,42.08
2019-04-22T11:09:34.097Z,43.77
2019-04-22T11:10:50.560Z,41.44
2019-04-22T11:11:48.750Z,42.41
2019-04-22T11:12:45.272Z,41.60
2019-04-22T11:13:49.696Z,41.12
2019-04-22T11:14:53.966Z,41.67
2019-04-22T11:15:58.512Z,41.69
2019-04-22T11:17:05.302Z,41.44
2019-04-22T11:18:07.450Z,42.26
2019-04-22T11:19:11.880Z,42.25
2019-04-22T11:20:15.840Z,42.93
2019-04-22T11:21:20.366Z,42.01
2019-04-22T11:22:29.986Z,41.88
2019-04-22T11:23:29.114Z,42.00
2019-04-22T11:24:34.690Z,41.60
2019-04-22T11:25:37.882Z,41.30
2019-04-22T11:26:43.156Z,40.86
2019-04-22T11:27:47.226Z,41.08
2019-04-22T11:28:51.754Z,41.17
2019-04-22T11:29:55.530Z,40.67
2019-04-22T11:31:00.768Z,41.17
2019-04-22T11:32:04.397Z,40.25
2019-04-22T11:33:08.722Z,39.09
2019-04-22T11:34:13.069Z,39.83
2019-04-22T11:35:17.415Z,38.93
2019-04-22T11:36:21.841Z,39.61
2019-04-22T11:37:26.226Z,39.88
2019-04-22T11:38:30.946Z,39.61
2019-04-22T11:39:36.684Z,39.82
2019-04-22T11:40:43.614Z,39.51
2019-04-22T11:41:44.383Z,40.14
2019-04-22T11:42:48.340Z,40.17
2019-04-22T11:43:53.593Z,40.22
2019-04-22T11:44:57.212Z,38.85
2019-04-22T11:46:01.396Z,39.03
2019-04-22T11:47:05.805Z,39.55
2019-04-22T11:48:11.211Z,38.92
2019-04-22T11:49:16.094Z,39.78
2019-04-22T11:50:19.893Z,39.68
2019-04-22T11:51:24.354Z,38.90
2019-04-22T11:52:28.816Z,38.29
2019-04-22T11:53:32.092Z,38.63
2019-04-22T11:54:36.896Z,39.00
2019-04-22T11:55:44.760Z,39.24
2019-04-22T11:56:47.461Z,39.38
2019-04-22T11:57:51.990Z,39.87
2019-04-22T11:58:57.048Z,41.07
2019-04-22T12:00:01.031Z,40.13
2019-04-22T12:01:06.422Z,38.70
2019-04-22T12:02:10.873Z,38.74
2019-04-22T12:03:14.738Z,37.27
2019-04-22T12:04:18.123Z,37.85
2019-04-22T12:05:23.777Z,37.63
2019-04-22T12:06:28.119Z,37.84
2019-04-22T12:07:34.464Z,37.72
2019-04-22T12:08:37.271Z,38.53
2019-04-22T12:09:39.953Z,37.50
2019-04-22T12:10:51.594Z,38.19
2019-04-22T12:11:49.515Z,38.34
2019-04-22T12:12:53.921Z,38.74
2019-04-22T12:13:57.947Z,38.20
2019-04-22T12:15:01.998Z,38.12
2019-04-22T12:16:07.513Z,38.02
2019-04-22T12:17:11.262Z,37.08
2019-04-22T12:18:15.370Z,37.88
2019-04-22T12:19:20.823Z,37.27
2019-04-22T12:20:25.381Z,37.66
2019-04-22T12:21:29.011Z,37.55
2019-04-22T12:22:33.974Z,37.45
2019-04-22T12:23:37.197Z,37.08
2019-04-22T12:24:42.521Z,37.14
2019-04-22T12:25:52.490Z,38.33
2019-04-22T12:26:50.675Z,38.24
2019-04-22T12:27:55.133Z,38.59
2019-04-22T12:28:59.330Z,38.10
2019-04-22T12:30:03.309Z,37.79
2019-04-22T12:31:07.616Z,37.77
2019-04-22T12:32:11.962Z,37.63
2019-04-22T12:33:17.011Z,37.99
2019-04-22T12:34:21.511Z,37.66
2019-04-22T12:35:26.287Z,38.17
2019-04-22T12:36:30.707Z,38.59
2019-04-22T12:37:42.936Z,38.63
2019-04-22T12:38:39.915Z,37.36
2019-04-22T12:39:43.476Z,36.49
2019-04-22T12:40:53.174Z,36.75
2019-04-22T12:41:52.154Z,36.97
2019-04-22T12:42:57.517Z,36.89
2019-04-22T12:44:01.015Z,37.30
2019-04-22T12:45:04.771Z,37.68
2019-04-22T12:46:10.146Z,37.83
2019-04-22T12:47:14.890Z,36.58
2019-04-22T12:48:19.093Z,36.19
2019-04-22T12:49:22.514Z,36.48
2019-04-22T12:50:31.550Z,37.29
2019-04-22T12:51:31.395Z,36.44
2019-04-22T12:52:43.702Z,36.67
2019-04-22T12:53:40.278Z,36.36
2019-04-22T12:54:44.615Z,35.38
2019-04-22T12:55:50.186Z,36.34
2019-04-22T12:56:53.431Z,36.61
2019-04-22T12:58:00.800Z,36.76
2019-04-22T12:59:03.693Z,37.68
2019-04-22T13:00:07.853Z,37.71
2019-04-22T13:01:10.984Z,37.49
2019-04-22T13:02:15.538Z,36.80
2019-04-22T13:03:20.379Z,37.27
2019-04-22T13:04:25.256Z,37.62
2019-04-22T13:05:29.195Z,36.01
2019-04-22T13:06:32.653Z,36.71
2019-04-22T13:07:38.000Z,36.34
2019-04-22T13:08:41.467Z,36.20
2019-04-22T13:09:45.786Z,36.46
2019-04-22T13:10:58.401Z,37.50
2019-04-22T13:11:55.060Z,37.29
2019-04-22T13:12:58.924Z,37.68
2019-04-22T13:14:03.362Z,36.86
2019-04-22T13:15:08.006Z,37.46
2019-04-22T13:16:13.356Z,37.05
2019-04-22T13:17:17.095Z,37.60
2019-04-22T13:18:29.393Z,37.72
2019-04-22T13:19:28.014Z,36.85
2019-04-22T13:20:30.471Z,37.84
2019-04-22T13:21:33.997Z,37.84
2019-04-22T13:22:38.867Z,37.85
2019-04-22T13:23:44.414Z,38.59
2019-04-22T13:24:47.982Z,39.04
2019-04-22T13:25:52.654Z,38.33
2019-04-22T13:26:57.067Z,39.38
2019-04-22T13:28:00.996Z,38.51
2019-04-22T13:29:05.285Z,38.20
2019-04-22T13:30:10.123Z,38.88
2019-04-22T13:31:13.980Z,38.63
2019-04-22T13:32:18.631Z,39.13
2019-04-22T13:33:23.187Z,39.27
2019-04-22T13:34:33.704Z,39.98
2019-04-22T13:35:31.847Z,40.05
2019-04-22T13:36:36.649Z,39.37
2019-04-22T13:37:41.089Z,39.59
2019-04-22T13:38:44.939Z,40.09
2019-04-22T13:39:49.279Z,39.38
2019-04-22T13:41:07.268Z,39.69
2019-04-22T13:42:02.290Z,39.99
2019-04-22T13:43:02.768Z,39.17
2019-04-22T13:44:07.062Z,39.21
2019-04-22T13:45:11.626Z,39.83
2019-04-22T13:46:16.640Z,40.14
2019-04-22T13:47:34.885Z,39.48
2019-04-22T13:48:38.734Z,39.99
2019-04-22T13:50:16.695Z,40.39
2019-04-22T13:51:15.132Z,40.20
2019-04-22T13:52:15.562Z,39.44
2019-04-22T13:53:18.424Z,39.57
2019-04-22T13:54:42.485Z,39.67
2019-04-22T13:55:16.220Z,39.95
2019-04-22T13:56:13.892Z,40.35
2019-04-22T13:57:22.950Z,40.99
2019-04-22T13:58:15.830Z,41.67
2019-04-22T13:59:18.351Z,41.92
2019-04-22T14:00:13.596Z,42.37
2019-04-22T14:01:16.564Z,42.71
2019-04-22T14:02:20.652Z,42.95
2019-04-22T14:03:24.999Z,43.49
2019-04-22T14:04:30.459Z,44.14
2019-04-22T14:05:34.944Z,42.58
2019-04-22T14:06:38.831Z,42.20
2019-04-22T14:07:43.155Z,42.67
2019-04-22T14:08:47.189Z,42.61
2019-04-22T14:09:51.253Z,43.47
2019-04-22T14:11:00.373Z,43.64
2019-04-22T14:12:05.218Z,44.14
2019-04-22T14:13:05.640Z,43.15
2019-04-22T14:14:12.733Z,43.03
2019-04-22T14:15:15.870Z,43.25
2019-04-22T14:16:19.581Z,42.47
2019-04-22T14:17:25.020Z,42.92
2019-04-22T14:18:28.727Z,43.30
2019-04-22T14:19:33.940Z,44.62
2019-04-22T14:20:36.908Z,44.07
2019-04-22T14:21:44.295Z,43.87
2019-04-22T14:22:46.307Z,43.58
2019-04-22T14:23:50.941Z,43.90
2019-04-22T14:24:54.546Z,43.66
2019-04-22T14:25:59.134Z,43.60
2019-04-22T14:27:17.572Z,44.23
2019-04-22T14:28:12.043Z,44.08
2019-04-22T14:29:11.711Z,44.46
2019-04-22T14:30:16.801Z,43.73
2019-04-22T14:31:20.503Z,42.95
2019-04-22T14:32:27.989Z,44.56
2019-04-22T14:33:30.126Z,43.89
2019-04-22T14:34:34.280Z,43.33
2019-04-22T14:35:38.458Z,44.01
2019-04-22T14:36:43.501Z,44.10
2019-04-22T14:37:47.817Z,44.62
2019-04-22T14:38:52.333Z,43.82
2019-04-22T14:39:55.782Z,43.75
2019-04-22T14:41:00.813Z,44.42
2019-04-22T14:42:21.611Z,43.25
2019-04-22T14:43:31.713Z,43.59
2019-04-22T14:45:50.682Z,44.44
2019-04-22T14:46:49.287Z,43.71
2019-04-22T14:47:53.956Z,43.76
2019-04-22T14:49:01.309Z,43.99
2019-04-22T14:49:59.089Z,44.57
2019-04-22T14:50:55.998Z,45.18
2019-04-22T14:52:08.326Z,44.69
2019-04-22T14:53:08.067Z,45.23
2019-04-22T14:54:12.436Z,45.26
2019-04-22T14:55:06.062Z,45.05
2019-04-22T14:56:02.287Z,45.42
2019-04-22T14:57:05.308Z,46.25
2019-04-22T14:58:10.950Z,46.57
2019-04-22T14:59:14.018Z,47.31
2019-04-22T15:00:19.762Z,47.95
2019-04-22T15:01:22.720Z,47.52
2019-04-22T15:02:27.856Z,46.75
2019-04-22T15:03:31.653Z,47.77
2019-04-22T15:04:37.272Z,47.87
2019-04-22T15:05:40.185Z,47.52
2019-04-22T15:06:47.092Z,47.47
2019-04-22T15:07:49.897Z,48.13
2019-04-22T15:08:54.560Z,47.79
2019-04-22T15:09:57.793Z,48.46
2019-04-22T15:11:02.194Z,48.93
2019-04-22T15:12:16.528Z,48.40
2019-04-22T15:13:11.543Z,48.18
2019-04-22T15:14:15.311Z,47.70
2019-04-22T15:15:19.656Z,47.60
2019-04-22T15:16:23.896Z,47.47
2019-04-22T15:17:29.180Z,47.91
2019-04-22T15:18:33.549Z,48.10
2019-04-22T15:19:38.023Z,47.77
2019-04-22T15:20:41.618Z,48.16
2019-04-22T15:21:46.970Z,48.46